sensor_id;sensor_type;location;lat;lon;timestamp;temperature;humidity
20066;DHT22;10193;48.884;9.182;2023-06-22T00:02:00;25.00;66.30
20066;DHT22;10193;48.884;9.182;2023-06-22T00:04:27;25.00;66.40
20066;DHT22;10193;48.884;9.182;2023-06-22T00:06:54;25.00;66.40
20066;DHT22;10193;48.884;9.182;2023-06-22T00:09:20;24.90;66.40
20066;DHT22;10193;48.884;9.182;2023-06-22T00:11:48;24.90;66.40
20066;DHT22;10193;48.884;9.182;2023-06-22T00:14:15;24.90;66.50
20066;DHT22;10193;48.884;9.182;2023-06-22T00:16:42;24.90;66.60
20066;DHT22;10193;48.884;9.182;2023-06-22T00:19:09;24.80;66.50
20066;DHT22;10193;48.884;9.182;2023-06-22T00:21:37;24.80;66.60
20066;DHT22;10193;48.884;9.182;2023-06-22T00:24:04;24.80;66.60
20066;DHT22;10193;48.884;9.182;2023-06-22T00:26:32;24.70;66.60
20066;DHT22;10193;48.884;9.182;2023-06-22T00:29:00;24.70;66.70
20066;DHT22;10193;48.884;9.182;2023-06-22T00:31:26;24.70;66.80
20066;DHT22;10193;48.884;9.182;2023-06-22T00:33:53;24.70;66.80
20066;DHT22;10193;48.884;9.182;2023-06-22T00:36:20;24.70;66.90
20066;DHT22;10193;48.884;9.182;2023-06-22T00:38:46;24.70;67.00
20066;DHT22;10193;48.884;9.182;2023-06-22T00:41:16;24.70;67.10
20066;DHT22;10193;48.884;9.182;2023-06-22T00:43:42;24.60;67.00
20066;DHT22;10193;48.884;9.182;2023-06-22T00:46:11;24.60;66.90
20066;DHT22;10193;48.884;9.182;2023-06-22T00:48:38;24.60;66.90
20066;DHT22;10193;48.884;9.182;2023-06-22T00:51:07;24.50;66.90
20066;DHT22;10193;48.884;9.182;2023-06-22T00:53:34;24.50;67.10
20066;DHT22;10193;48.884;9.182;2023-06-22T00:56:03;24.40;67.10
20066;DHT22;10193;48.884;9.182;2023-06-22T00:58:31;24.40;67.20
20066;DHT22;10193;48.884;9.182;2023-06-22T01:00:58;24.40;67.20
20066;DHT22;10193;48.884;9.182;2023-06-22T01:03:27;24.30;67.10
20066;DHT22;10193;48.884;9.182;2023-06-22T01:05:59;24.30;67.30
20066;DHT22;10193;48.884;9.182;2023-06-22T01:08:31;24.20;67.50
20066;DHT22;10193;48.884;9.182;2023-06-22T01:11:04;24.20;67.60
20066;DHT22;10193;48.884;9.182;2023-06-22T01:13:36;24.20;67.60
20066;DHT22;10193;48.884;9.182;2023-06-22T01:16:09;24.10;67.70
20066;DHT22;10193;48.884;9.182;2023-06-22T01:18:41;24.00;67.80
20066;DHT22;10193;48.884;9.182;2023-06-22T01:21:11;24.00;68.00
20066;DHT22;10193;48.884;9.182;2023-06-22T01:23:51;24.00;68.20
20066;DHT22;10193;48.884;9.182;2023-06-22T01:26:25;23.90;68.20
20066;DHT22;10193;48.884;9.182;2023-06-22T01:28:57;23.90;68.30
20066;DHT22;10193;48.884;9.182;2023-06-22T01:31:26;23.90;68.30
20066;DHT22;10193;48.884;9.182;2023-06-22T01:33:57;23.90;68.40
20066;DHT22;10193;48.884;9.182;2023-06-22T01:36:26;23.90;68.50
20066;DHT22;10193;48.884;9.182;2023-06-22T01:38:53;23.90;68.50
20066;DHT22;10193;48.884;9.182;2023-06-22T01:41:20;23.90;68.60
20066;DHT22;10193;48.884;9.182;2023-06-22T01:43:48;23.90;68.60
20066;DHT22;10193;48.884;9.182;2023-06-22T01:46:18;23.90;68.70
20066;DHT22;10193;48.884;9.182;2023-06-22T01:48:46;23.80;68.70
20066;DHT22;10193;48.884;9.182;2023-06-22T01:51:13;23.80;68.80
20066;DHT22;10193;48.884;9.182;2023-06-22T01:53:40;23.80;68.90
20066;DHT22;10193;48.884;9.182;2023-06-22T01:56:06;23.80;68.90
20066;DHT22;10193;48.884;9.182;2023-06-22T01:58:38;23.80;69.00
20066;DHT22;10193;48.884;9.182;2023-06-22T02:01:10;23.80;69.90
20066;DHT22;10193;48.884;9.182;2023-06-22T02:03:42;23.70;69.00
20066;DHT22;10193;48.884;9.182;2023-06-22T02:06:14;23.70;69.00
20066;DHT22;10193;48.884;9.182;2023-06-22T02:08:59;23.70;69.90
20066;DHT22;10193;48.884;9.182;2023-06-22T02:11:26;23.70;69.20
20066;DHT22;10193;48.884;9.182;2023-06-22T02:13:55;23.70;69.20
20066;DHT22;10193;48.884;9.182;2023-06-22T02:16:23;23.70;69.30
20066;DHT22;10193;48.884;9.182;2023-06-22T02:18:51;23.60;69.30
20066;DHT22;10193;48.884;9.182;2023-06-22T02:21:18;23.60;69.40
20066;DHT22;10193;48.884;9.182;2023-06-22T02:23:46;23.60;69.50
20066;DHT22;10193;48.884;9.182;2023-06-22T02:26:13;23.50;69.50
20066;DHT22;10193;48.884;9.182;2023-06-22T02:28:39;23.50;69.60
20066;DHT22;10193;48.884;9.182;2023-06-22T02:31:06;23.50;69.70
20066;DHT22;10193;48.884;9.182;2023-06-22T02:33:33;23.50;69.80
20066;DHT22;10193;48.884;9.182;2023-06-22T02:36:01;23.40;69.80
20066;DHT22;10193;48.884;9.182;2023-06-22T02:38:30;23.40;69.80
20066;DHT22;10193;48.884;9.182;2023-06-22T02:41:00;23.40;69.80
20066;DHT22;10193;48.884;9.182;2023-06-22T02:43:26;23.40;69.90
20066;DHT22;10193;48.884;9.182;2023-06-22T02:45:53;23.30;69.90
20066;DHT22;10193;48.884;9.182;2023-06-22T02:48:20;23.30;70.10
20066;DHT22;10193;48.884;9.182;2023-06-22T02:50:46;23.30;70.10
20066;DHT22;10193;48.884;9.182;2023-06-22T02:53:14;23.30;70.10
20066;DHT22;10193;48.884;9.182;2023-06-22T02:55:41;23.20;70.10
20066;DHT22;10193;48.884;9.182;2023-06-22T02:58:08;23.20;70.20
20066;DHT22;10193;48.884;9.182;2023-06-22T03:00:35;23.20;70.30
20066;DHT22;10193;48.884;9.182;2023-06-22T03:03:01;23.20;70.40
20066;DHT22;10193;48.884;9.182;2023-06-22T03:05:28;23.20;70.50
20066;DHT22;10193;48.884;9.182;2023-06-22T03:07:55;23.20;70.60
20066;DHT22;10193;48.884;9.182;2023-06-22T03:10:23;23.20;70.70
20066;DHT22;10193;48.884;9.182;2023-06-22T03:12:50;23.20;70.70
20066;DHT22;10193;48.884;9.182;2023-06-22T03:15:16;23.10;70.60
20066;DHT22;10193;48.884;9.182;2023-06-22T03:17:43;23.10;71.60
20066;DHT22;10193;48.884;9.182;2023-06-22T03:20:11;23.10;70.80
20066;DHT22;10193;48.884;9.182;2023-06-22T03:22:39;23.10;70.90
20066;DHT22;10193;48.884;9.182;2023-06-22T03:25:06;23.10;70.90
20066;DHT22;10193;48.884;9.182;2023-06-22T03:27:40;23.10;71.00
20066;DHT22;10193;48.884;9.182;2023-06-22T03:30:08;23.10;71.00
20066;DHT22;10193;48.884;9.182;2023-06-22T03:32:35;23.10;71.10
20066;DHT22;10193;48.884;9.182;2023-06-22T03:35:02;23.10;71.20
20066;DHT22;10193;48.884;9.182;2023-06-22T03:37:29;23.10;71.20
20066;DHT22;10193;48.884;9.182;2023-06-22T03:39:56;23.10;71.40
20066;DHT22;10193;48.884;9.182;2023-06-22T03:42:22;23.10;71.40
20066;DHT22;10193;48.884;9.182;2023-06-22T03:44:51;23.10;71.30
20066;DHT22;10193;48.884;9.182;2023-06-22T03:47:17;23.10;71.40
20066;DHT22;10193;48.884;9.182;2023-06-22T03:49:44;23.10;71.40
20066;DHT22;10193;48.884;9.182;2023-06-22T03:52:11;23.10;71.50
20066;DHT22;10193;48.884;9.182;2023-06-22T03:54:38;23.10;71.50
20066;DHT22;10193;48.884;9.182;2023-06-22T03:57:05;23.10;71.40
20066;DHT22;10193;48.884;9.182;2023-06-22T03:59:31;23.20;71.50
20066;DHT22;10193;48.884;9.182;2023-06-22T04:02:00;23.20;71.60
20066;DHT22;10193;48.884;9.182;2023-06-22T04:04:26;23.20;71.60
20066;DHT22;10193;48.884;9.182;2023-06-22T04:06:53;23.20;71.70
20066;DHT22;10193;48.884;9.182;2023-06-22T04:09:20;23.20;71.70
20066;DHT22;10193;48.884;9.182;2023-06-22T04:11:47;23.20;71.80
20066;DHT22;10193;48.884;9.182;2023-06-22T04:14:14;23.30;72.00
20066;DHT22;10193;48.884;9.182;2023-06-22T04:16:41;23.30;72.10
20066;DHT22;10193;48.884;9.182;2023-06-22T04:19:09;23.30;72.20
20066;DHT22;10193;48.884;9.182;2023-06-22T04:21:41;23.40;72.30
20066;DHT22;10193;48.884;9.182;2023-06-22T04:24:08;23.50;72.50
20066;DHT22;10193;48.884;9.182;2023-06-22T04:26:35;23.50;72.70
20066;DHT22;10193;48.884;9.182;2023-06-22T04:29:03;23.60;73.00
20066;DHT22;10193;48.884;9.182;2023-06-22T04:31:31;23.80;73.30
20066;DHT22;10193;48.884;9.182;2023-06-22T04:34:02;23.90;73.50
20066;DHT22;10193;48.884;9.182;2023-06-22T04:36:34;24.10;73.70
20066;DHT22;10193;48.884;9.182;2023-06-22T04:39:04;24.30;73.60
20066;DHT22;10193;48.884;9.182;2023-06-22T04:41:31;24.50;73.70
20066;DHT22;10193;48.884;9.182;2023-06-22T04:44:08;24.70;73.50
20066;DHT22;10193;48.884;9.182;2023-06-22T04:46:35;24.90;73.50
20066;DHT22;10193;48.884;9.182;2023-06-22T04:49:04;25.10;73.00
20066;DHT22;10193;48.884;9.182;2023-06-22T04:51:39;25.30;72.70
20066;DHT22;10193;48.884;9.182;2023-06-22T04:54:05;25.50;72.30
20066;DHT22;10193;48.884;9.182;2023-06-22T04:56:32;25.70;72.30
20066;DHT22;10193;48.884;9.182;2023-06-22T04:58:59;25.90;72.10
20066;DHT22;10193;48.884;9.182;2023-06-22T05:01:26;26.00;71.90
20066;DHT22;10193;48.884;9.182;2023-06-22T05:03:53;26.30;71.70
20066;DHT22;10193;48.884;9.182;2023-06-22T05:06:22;26.50;71.50
20066;DHT22;10193;48.884;9.182;2023-06-22T05:08:52;26.70;71.20
20066;DHT22;10193;48.884;9.182;2023-06-22T05:11:24;26.90;70.90
20066;DHT22;10193;48.884;9.182;2023-06-22T05:13:50;27.20;70.60
20066;DHT22;10193;48.884;9.182;2023-06-22T05:16:17;27.40;70.20
20066;DHT22;10193;48.884;9.182;2023-06-22T05:18:51;27.60;69.60
20066;DHT22;10193;48.884;9.182;2023-06-22T05:21:20;27.80;69.30
20066;DHT22;10193;48.884;9.182;2023-06-22T05:23:46;28.00;69.20
20066;DHT22;10193;48.884;9.182;2023-06-22T05:26:14;28.20;68.90
20066;DHT22;10193;48.884;9.182;2023-06-22T05:28:41;28.40;68.60
20066;DHT22;10193;48.884;9.182;2023-06-22T05:31:11;28.60;68.30
20066;DHT22;10193;48.884;9.182;2023-06-22T05:33:38;28.80;68.00
20066;DHT22;10193;48.884;9.182;2023-06-22T05:36:05;29.00;67.30
20066;DHT22;10193;48.884;9.182;2023-06-22T05:38:32;29.20;66.80
20066;DHT22;10193;48.884;9.182;2023-06-22T05:40:58;29.30;66.20
20066;DHT22;10193;48.884;9.182;2023-06-22T05:43:26;29.50;65.60
20066;DHT22;10193;48.884;9.182;2023-06-22T05:45:53;29.60;65.40
20066;DHT22;10193;48.884;9.182;2023-06-22T05:48:19;29.70;65.10
20066;DHT22;10193;48.884;9.182;2023-06-22T05:50:46;29.80;65.20
20066;DHT22;10193;48.884;9.182;2023-06-22T05:53:13;29.90;64.40
20066;DHT22;10193;48.884;9.182;2023-06-22T05:55:40;29.90;64.10
20066;DHT22;10193;48.884;9.182;2023-06-22T05:58:08;30.10;64.00
20066;DHT22;10193;48.884;9.182;2023-06-22T06:00:36;30.20;64.00
20066;DHT22;10193;48.884;9.182;2023-06-22T06:03:02;30.20;62.80
20066;DHT22;10193;48.884;9.182;2023-06-22T06:05:29;30.30;61.90
20066;DHT22;10193;48.884;9.182;2023-06-22T06:07:56;30.20;61.30
20066;DHT22;10193;48.884;9.182;2023-06-22T06:10:22;30.20;61.10
20066;DHT22;10193;48.884;9.182;2023-06-22T06:12:49;30.10;61.30
20066;DHT22;10193;48.884;9.182;2023-06-22T06:15:16;30.10;61.90
20066;DHT22;10193;48.884;9.182;2023-06-22T06:17:47;30.10;62.10
20066;DHT22;10193;48.884;9.182;2023-06-22T06:20:14;30.10;61.80
20066;DHT22;10193;48.884;9.182;2023-06-22T06:22:41;30.10;62.20
20066;DHT22;10193;48.884;9.182;2023-06-22T06:25:09;30.20;61.90
20066;DHT22;10193;48.884;9.182;2023-06-22T06:27:41;30.20;61.70
20066;DHT22;10193;48.884;9.182;2023-06-22T06:30:08;30.40;62.10
20066;DHT22;10193;48.884;9.182;2023-06-22T06:32:35;30.50;61.90
20066;DHT22;10193;48.884;9.182;2023-06-22T06:35:04;30.60;62.10
20066;DHT22;10193;48.884;9.182;2023-06-22T06:37:31;30.80;62.50
20066;DHT22;10193;48.884;9.182;2023-06-22T06:39:58;30.90;61.60
20066;DHT22;10193;48.884;9.182;2023-06-22T06:42:24;31.10;60.90
20066;DHT22;10193;48.884;9.182;2023-06-22T06:44:51;31.10;59.80
20066;DHT22;10193;48.884;9.182;2023-06-22T06:47:18;31.20;59.60
20066;DHT22;10193;48.884;9.182;2023-06-22T06:49:44;31.30;59.20
20066;DHT22;10193;48.884;9.182;2023-06-22T06:52:12;31.40;59.30
20066;DHT22;10193;48.884;9.182;2023-06-22T06:54:39;31.40;59.20
20066;DHT22;10193;48.884;9.182;2023-06-22T06:57:07;31.40;59.10
20066;DHT22;10193;48.884;9.182;2023-06-22T06:59:36;31.50;59.30
20066;DHT22;10193;48.884;9.182;2023-06-22T07:02:03;31.50;59.00
20066;DHT22;10193;48.884;9.182;2023-06-22T07:04:29;31.50;59.10
20066;DHT22;10193;48.884;9.182;2023-06-22T07:06:56;31.50;59.00
20066;DHT22;10193;48.884;9.182;2023-06-22T07:09:24;31.50;58.30
20066;DHT22;10193;48.884;9.182;2023-06-22T07:11:51;31.50;57.80
20066;DHT22;10193;48.884;9.182;2023-06-22T07:14:17;31.40;57.80
20066;DHT22;10193;48.884;9.182;2023-06-22T07:16:44;31.40;58.00
20066;DHT22;10193;48.884;9.182;2023-06-22T07:19:11;31.30;58.00
20066;DHT22;10193;48.884;9.182;2023-06-22T07:21:38;31.30;58.20
20066;DHT22;10193;48.884;9.182;2023-06-22T07:24:06;31.20;58.30
20066;DHT22;10193;48.884;9.182;2023-06-22T07:26:34;31.20;58.30
20066;DHT22;10193;48.884;9.182;2023-06-22T07:29:01;31.20;58.10
20066;DHT22;10193;48.884;9.182;2023-06-22T07:31:27;31.10;57.80
20066;DHT22;10193;48.884;9.182;2023-06-22T07:33:54;31.10;58.00
20066;DHT22;10193;48.884;9.182;2023-06-22T07:36:20;31.10;58.20
20066;DHT22;10193;48.884;9.182;2023-06-22T07:38:47;31.10;58.20
20066;DHT22;10193;48.884;9.182;2023-06-22T07:41:14;31.10;58.40
20066;DHT22;10193;48.884;9.182;2023-06-22T07:43:42;31.10;58.40
20066;DHT22;10193;48.884;9.182;2023-06-22T07:46:09;31.20;58.30
20066;DHT22;10193;48.884;9.182;2023-06-22T07:48:37;31.30;58.40
20066;DHT22;10193;48.884;9.182;2023-06-22T07:51:04;31.30;58.40
20066;DHT22;10193;48.884;9.182;2023-06-22T07:53:32;31.30;58.20
20066;DHT22;10193;48.884;9.182;2023-06-22T07:55:59;31.40;57.90
20066;DHT22;10193;48.884;9.182;2023-06-22T07:58:26;31.40;57.60
20066;DHT22;10193;48.884;9.182;2023-06-22T08:00:54;31.40;57.30
20066;DHT22;10193;48.884;9.182;2023-06-22T08:03:21;31.40;57.20
20066;DHT22;10193;48.884;9.182;2023-06-22T08:05:47;31.30;57.10
20066;DHT22;10193;48.884;9.182;2023-06-22T08:08:14;31.30;56.90
20066;DHT22;10193;48.884;9.182;2023-06-22T08:10:41;31.20;56.70
20066;DHT22;10193;48.884;9.182;2023-06-22T08:13:08;31.10;56.30
20066;DHT22;10193;48.884;9.182;2023-06-22T08:15:35;31.00;56.30
20066;DHT22;10193;48.884;9.182;2023-06-22T08:18:03;30.90;56.50
20066;DHT22;10193;48.884;9.182;2023-06-22T08:20:30;30.90;56.60
20066;DHT22;10193;48.884;9.182;2023-06-22T08:22:57;30.80;56.80
20066;DHT22;10193;48.884;9.182;2023-06-22T08:25:30;30.80;57.10
20066;DHT22;10193;48.884;9.182;2023-06-22T08:27:57;30.80;57.30
20066;DHT22;10193;48.884;9.182;2023-06-22T08:30:24;30.80;57.60
20066;DHT22;10193;48.884;9.182;2023-06-22T08:32:50;30.90;57.70
20066;DHT22;10193;48.884;9.182;2023-06-22T08:35:18;30.90;57.60
20066;DHT22;10193;48.884;9.182;2023-06-22T08:37:46;31.00;57.70
20066;DHT22;10193;48.884;9.182;2023-06-22T08:40:18;31.10;57.70
20066;DHT22;10193;48.884;9.182;2023-06-22T08:42:45;31.20;57.60
20066;DHT22;10193;48.884;9.182;2023-06-22T08:45:12;31.30;57.80
20066;DHT22;10193;48.884;9.182;2023-06-22T08:47:39;31.40;57.60
20066;DHT22;10193;48.884;9.182;2023-06-22T08:50:07;31.50;57.30
20066;DHT22;10193;48.884;9.182;2023-06-22T08:52:36;31.60;57.20
20066;DHT22;10193;48.884;9.182;2023-06-22T08:55:03;31.70;56.80
20066;DHT22;10193;48.884;9.182;2023-06-22T08:57:30;31.70;56.70
20066;DHT22;10193;48.884;9.182;2023-06-22T08:59:58;31.80;56.70
20066;DHT22;10193;48.884;9.182;2023-06-22T09:02:25;31.80;56.50
20066;DHT22;10193;48.884;9.182;2023-06-22T09:04:56;31.80;56.30
20066;DHT22;10193;48.884;9.182;2023-06-22T09:07:23;31.90;56.50
20066;DHT22;10193;48.884;9.182;2023-06-22T09:09:51;32.00;56.50
20066;DHT22;10193;48.884;9.182;2023-06-22T09:12:19;32.00;56.20
20066;DHT22;10193;48.884;9.182;2023-06-22T09:14:50;32.10;56.30
20066;DHT22;10193;48.884;9.182;2023-06-22T09:17:16;32.20;56.10
20066;DHT22;10193;48.884;9.182;2023-06-22T09:19:43;32.30;56.00
20066;DHT22;10193;48.884;9.182;2023-06-22T09:22:10;32.40;55.50
20066;DHT22;10193;48.884;9.182;2023-06-22T09:24:37;32.50;55.40
20066;DHT22;10193;48.884;9.182;2023-06-22T09:27:05;32.50;55.10
20066;DHT22;10193;48.884;9.182;2023-06-22T09:29:32;32.60;54.70
20066;DHT22;10193;48.884;9.182;2023-06-22T09:31:59;32.50;54.60
20066;DHT22;10193;48.884;9.182;2023-06-22T09:34:27;32.60;54.50
20066;DHT22;10193;48.884;9.182;2023-06-22T09:36:53;32.60;54.40
20066;DHT22;10193;48.884;9.182;2023-06-22T09:39:20;32.60;54.40
20066;DHT22;10193;48.884;9.182;2023-06-22T09:41:47;32.70;54.60
20066;DHT22;10193;48.884;9.182;2023-06-22T09:44:15;32.70;54.60
20066;DHT22;10193;48.884;9.182;2023-06-22T09:46:41;32.80;54.10
20066;DHT22;10193;48.884;9.182;2023-06-22T09:49:08;32.80;54.10
20066;DHT22;10193;48.884;9.182;2023-06-22T09:51:35;32.90;53.90
20066;DHT22;10193;48.884;9.182;2023-06-22T09:54:01;32.90;53.60
20066;DHT22;10193;48.884;9.182;2023-06-22T09:56:28;33.00;53.60
20066;DHT22;10193;48.884;9.182;2023-06-22T09:58:55;33.00;53.60
20066;DHT22;10193;48.884;9.182;2023-06-22T10:01:23;33.00;53.60
20066;DHT22;10193;48.884;9.182;2023-06-22T10:03:52;33.00;53.50
20066;DHT22;10193;48.884;9.182;2023-06-22T10:06:21;33.10;53.50
20066;DHT22;10193;48.884;9.182;2023-06-22T10:08:49;33.10;53.50
20066;DHT22;10193;48.884;9.182;2023-06-22T10:11:16;33.10;53.50
20066;DHT22;10193;48.884;9.182;2023-06-22T10:13:43;33.20;53.40
20066;DHT22;10193;48.884;9.182;2023-06-22T10:16:09;33.30;53.30
20066;DHT22;10193;48.884;9.182;2023-06-22T10:18:37;33.30;53.20
20066;DHT22;10193;48.884;9.182;2023-06-22T10:21:04;33.40;53.00
20066;DHT22;10193;48.884;9.182;2023-06-22T10:23:30;33.40;53.00
20066;DHT22;10193;48.884;9.182;2023-06-22T10:25:57;33.50;53.10
20066;DHT22;10193;48.884;9.182;2023-06-22T10:28:24;33.50;53.10
20066;DHT22;10193;48.884;9.182;2023-06-22T10:30:50;33.60;53.00
20066;DHT22;10193;48.884;9.182;2023-06-22T10:33:17;33.60;52.80
20066;DHT22;10193;48.884;9.182;2023-06-22T10:35:45;33.80;52.90
20066;DHT22;10193;48.884;9.182;2023-06-22T10:38:12;33.80;52.80
20066;DHT22;10193;48.884;9.182;2023-06-22T10:40:39;33.90;52.60
20066;DHT22;10193;48.884;9.182;2023-06-22T10:43:05;34.00;52.30
20066;DHT22;10193;48.884;9.182;2023-06-22T10:45:32;34.10;52.30
20066;DHT22;10193;48.884;9.182;2023-06-22T10:47:59;34.20;52.10
20066;DHT22;10193;48.884;9.182;2023-06-22T10:50:25;34.20;51.90
20066;DHT22;10193;48.884;9.182;2023-06-22T10:52:54;34.30;51.60
20066;DHT22;10193;48.884;9.182;2023-06-22T10:55:20;34.40;51.70
20066;DHT22;10193;48.884;9.182;2023-06-22T10:57:47;34.50;51.70
20066;DHT22;10193;48.884;9.182;2023-06-22T11:00:14;34.50;51.30
20066;DHT22;10193;48.884;9.182;2023-06-22T11:02:42;34.60;51.10
20066;DHT22;10193;48.884;9.182;2023-06-22T11:05:08;34.60;51.00
20066;DHT22;10193;48.884;9.182;2023-06-22T11:07:36;34.70;51.00
20066;DHT22;10193;48.884;9.182;2023-06-22T11:10:05;34.70;51.00
20066;DHT22;10193;48.884;9.182;2023-06-22T11:12:32;34.80;51.20
20066;DHT22;10193;48.884;9.182;2023-06-22T11:14:58;34.90;50.80
20066;DHT22;10193;48.884;9.182;2023-06-22T11:17:25;34.90;50.60
20066;DHT22;10193;48.884;9.182;2023-06-22T11:19:52;35.00;50.40
20066;DHT22;10193;48.884;9.182;2023-06-22T11:22:19;35.10;50.40
20066;DHT22;10193;48.884;9.182;2023-06-22T11:24:45;35.10;50.20
20066;DHT22;10193;48.884;9.182;2023-06-22T11:27:13;35.20;50.10
20066;DHT22;10193;48.884;9.182;2023-06-22T11:29:40;35.30;49.80
20066;DHT22;10193;48.884;9.182;2023-06-22T11:32:07;35.30;49.70
20066;DHT22;10193;48.884;9.182;2023-06-22T11:34:34;35.40;49.70
20066;DHT22;10193;48.884;9.182;2023-06-22T11:37:01;35.40;49.60
20066;DHT22;10193;48.884;9.182;2023-06-22T11:39:28;35.40;49.40
20066;DHT22;10193;48.884;9.182;2023-06-22T11:41:54;35.50;49.10
20066;DHT22;10193;48.884;9.182;2023-06-22T11:44:22;35.50;48.60
20066;DHT22;10193;48.884;9.182;2023-06-22T11:46:49;35.40;48.40
20066;DHT22;10193;48.884;9.182;2023-06-22T11:49:15;35.40;49.10
20066;DHT22;10193;48.884;9.182;2023-06-22T11:51:42;35.30;49.20
20066;DHT22;10193;48.884;9.182;2023-06-22T11:54:09;35.20;48.70
20066;DHT22;10193;48.884;9.182;2023-06-22T11:56:35;35.20;48.80
20066;DHT22;10193;48.884;9.182;2023-06-22T11:59:02;35.30;48.90
20066;DHT22;10193;48.884;9.182;2023-06-22T12:01:30;35.20;48.90
20066;DHT22;10193;48.884;9.182;2023-06-22T12:03:58;35.20;48.80
20066;DHT22;10193;48.884;9.182;2023-06-22T12:06:25;35.20;48.70
20066;DHT22;10193;48.884;9.182;2023-06-22T12:08:52;35.20;48.60
20066;DHT22;10193;48.884;9.182;2023-06-22T12:11:18;35.20;48.80
20066;DHT22;10193;48.884;9.182;2023-06-22T12:13:45;35.20;48.70
20066;DHT22;10193;48.884;9.182;2023-06-22T12:16:11;35.10;48.60
20066;DHT22;10193;48.884;9.182;2023-06-22T12:18:39;35.10;48.70
20066;DHT22;10193;48.884;9.182;2023-06-22T12:21:07;35.10;48.70
20066;DHT22;10193;48.884;9.182;2023-06-22T12:23:34;35.00;49.40
20066;DHT22;10193;48.884;9.182;2023-06-22T12:26:00;35.00;48.80
20066;DHT22;10193;48.884;9.182;2023-06-22T12:28:27;34.90;48.70
20066;DHT22;10193;48.884;9.182;2023-06-22T12:30:53;34.90;48.90
20066;DHT22;10193;48.884;9.182;2023-06-22T12:33:20;34.90;48.70
20066;DHT22;10193;48.884;9.182;2023-06-22T12:35:48;34.90;48.80
20066;DHT22;10193;48.884;9.182;2023-06-22T12:38:15;34.90;48.60
20066;DHT22;10193;48.884;9.182;2023-06-22T12:40:42;34.90;48.40
20066;DHT22;10193;48.884;9.182;2023-06-22T12:43:08;34.80;48.20
20066;DHT22;10193;48.884;9.182;2023-06-22T12:45:35;34.80;48.10
20066;DHT22;10193;48.884;9.182;2023-06-22T12:48:01;34.80;48.30
20066;DHT22;10193;48.884;9.182;2023-06-22T12:50:28;34.80;48.60
20066;DHT22;10193;48.884;9.182;2023-06-22T12:52:56;34.80;49.00
20066;DHT22;10193;48.884;9.182;2023-06-22T12:55:23;34.90;49.10
20066;DHT22;10193;48.884;9.182;2023-06-22T12:57:50;34.90;49.20
20066;DHT22;10193;48.884;9.182;2023-06-22T13:00:17;34.90;49.10
20066;DHT22;10193;48.884;9.182;2023-06-22T13:02:43;34.90;49.10
20066;DHT22;10193;48.884;9.182;2023-06-22T13:05:10;35.00;49.20
20066;DHT22;10193;48.884;9.182;2023-06-22T13:07:37;35.00;49.20
20066;DHT22;10193;48.884;9.182;2023-06-22T13:10:06;35.00;49.20
20066;DHT22;10193;48.884;9.182;2023-06-22T13:12:33;35.00;49.00
20066;DHT22;10193;48.884;9.182;2023-06-22T13:15:00;35.00;48.90
20066;DHT22;10193;48.884;9.182;2023-06-22T13:17:28;35.00;49.50
20066;DHT22;10193;48.884;9.182;2023-06-22T13:19:55;35.00;49.00
20066;DHT22;10193;48.884;9.182;2023-06-22T13:22:27;34.90;48.70
20066;DHT22;10193;48.884;9.182;2023-06-22T13:24:55;34.90;48.60
20066;DHT22;10193;48.884;9.182;2023-06-22T13:27:23;34.90;48.60
20066;DHT22;10193;48.884;9.182;2023-06-22T13:29:50;34.90;48.70
20066;DHT22;10193;48.884;9.182;2023-06-22T13:32:17;34.80;48.60
20066;DHT22;10193;48.884;9.182;2023-06-22T13:34:43;34.80;48.70
20066;DHT22;10193;48.884;9.182;2023-06-22T13:37:10;34.80;48.80
20066;DHT22;10193;48.884;9.182;2023-06-22T13:39:37;34.80;49.10
20066;DHT22;10193;48.884;9.182;2023-06-22T13:42:04;34.80;49.20
20066;DHT22;10193;48.884;9.182;2023-06-22T13:44:32;34.90;49.40
20066;DHT22;10193;48.884;9.182;2023-06-22T13:46:59;34.90;49.30
20066;DHT22;10193;48.884;9.182;2023-06-22T13:49:26;35.00;49.40
20066;DHT22;10193;48.884;9.182;2023-06-22T13:51:52;35.10;49.30
20066;DHT22;10193;48.884;9.182;2023-06-22T13:54:19;35.20;49.30
20066;DHT22;10193;48.884;9.182;2023-06-22T13:56:46;35.40;49.20
20066;DHT22;10193;48.884;9.182;2023-06-22T13:59:13;35.50;49.10
20066;DHT22;10193;48.884;9.182;2023-06-22T14:01:41;35.60;48.80
20066;DHT22;10193;48.884;9.182;2023-06-22T14:04:08;35.70;48.60
20066;DHT22;10193;48.884;9.182;2023-06-22T14:06:35;35.70;48.30
20066;DHT22;10193;48.884;9.182;2023-06-22T14:09:02;35.70;48.20
20066;DHT22;10193;48.884;9.182;2023-06-22T14:11:28;35.80;48.00
20066;DHT22;10193;48.884;9.182;2023-06-22T14:13:55;35.80;47.80
20066;DHT22;10193;48.884;9.182;2023-06-22T14:16:21;35.80;47.70
20066;DHT22;10193;48.884;9.182;2023-06-22T14:18:49;35.80;47.70
20066;DHT22;10193;48.884;9.182;2023-06-22T14:21:16;35.80;47.60
20066;DHT22;10193;48.884;9.182;2023-06-22T14:23:44;35.80;47.60
20066;DHT22;10193;48.884;9.182;2023-06-22T14:26:14;35.80;47.70
20066;DHT22;10193;48.884;9.182;2023-06-22T14:28:43;35.70;47.80
20066;DHT22;10193;48.884;9.182;2023-06-22T14:31:12;35.70;47.70
20066;DHT22;10193;48.884;9.182;2023-06-22T14:33:39;35.70;47.60
20066;DHT22;10193;48.884;9.182;2023-06-22T14:36:07;35.70;47.80
20066;DHT22;10193;48.884;9.182;2023-06-22T14:38:34;35.80;48.00
20066;DHT22;10193;48.884;9.182;2023-06-22T14:41:00;35.80;47.80
20066;DHT22;10193;48.884;9.182;2023-06-22T14:43:27;35.90;47.60
20066;DHT22;10193;48.884;9.182;2023-06-22T14:45:54;35.90;47.70
20066;DHT22;10193;48.884;9.182;2023-06-22T14:48:20;36.00;47.70
20066;DHT22;10193;48.884;9.182;2023-06-22T14:50:47;36.00;47.20
20066;DHT22;10193;48.884;9.182;2023-06-22T14:53:15;36.10;46.70
20066;DHT22;10193;48.884;9.182;2023-06-22T14:55:42;36.10;46.50
20066;DHT22;10193;48.884;9.182;2023-06-22T14:58:10;36.10;46.40
20066;DHT22;10193;48.884;9.182;2023-06-22T15:00:36;36.10;46.30
20066;DHT22;10193;48.884;9.182;2023-06-22T15:03:04;36.10;45.20
20066;DHT22;10193;48.884;9.182;2023-06-22T15:05:33;36.10;44.30
20066;DHT22;10193;48.884;9.182;2023-06-22T15:07:59;36.10;43.60
20066;DHT22;10193;48.884;9.182;2023-06-22T15:10:27;36.10;43.10
20066;DHT22;10193;48.884;9.182;2023-06-22T15:12:54;36.10;42.60
20066;DHT22;10193;48.884;9.182;2023-06-22T15:15:20;36.00;42.50
20066;DHT22;10193;48.884;9.182;2023-06-22T15:17:47;35.90;41.90
20066;DHT22;10193;48.884;9.182;2023-06-22T15:20:14;35.90;41.60
20066;DHT22;10193;48.884;9.182;2023-06-22T15:22:40;35.80;41.50
20066;DHT22;10193;48.884;9.182;2023-06-22T15:25:07;35.80;41.40
20066;DHT22;10193;48.884;9.182;2023-06-22T15:27:35;35.70;41.00
20066;DHT22;10193;48.884;9.182;2023-06-22T15:30:03;35.70;40.80
20066;DHT22;10193;48.884;9.182;2023-06-22T15:32:30;35.70;40.80